Time;durP1;ratioP1;P1;durP2;ratioP2;P2;SDS_P1;SDS_P2;PMS_P1;PMS_P2;Temp;Humidity;BMP_temperature;BMP_pressure;BME280_temperature;BME280_humidity;BME280_pressure;Samples;Min_cycle;Max_cycle;Signal;HPM_P1;HPM_P2
2021/12/06 00:01:17;;;;;;;74.32;26.17;;;;;;;;;;4956889;28;20564;-86
2021/12/06 00:03:48;;;;;;;83.07;24.48;;;;;;;;;;4941717;29;20664;-86
2021/12/06 00:06:16;;;;;;;74.78;26.10;;;;;;;;;;4960418;28;20152;-87
2021/12/06 00:08:43;;;;;;;86.88;26.70;;;;;;;;;;4935530;28;20051;-86
2021/12/06 00:11:11;;;;;;;74.85;24.95;;;;;;;;;;4937328;29;20095;-86
2021/12/06 00:13:40;;;;;;;76.13;24.73;;;;;;;;;;4932430;29;20071;-86
2021/12/06 00:16:11;;;;;;;70.55;21.75;;;;;;;;;;4937636;29;20043;-86
2021/12/06 00:18:39;;;;;;;70.72;21.42;;;;;;;;;;4944811;29;20602;-86
2021/12/06 00:21:07;;;;;;;65.18;21.73;;;;;;;;;;4945674;29;20421;-86
2021/12/06 00:23:35;;;;;;;51.00;18.33;;;;;;;;;;4953377;28;20745;-86
2021/12/06 00:26:02;;;;;;;53.45;18.95;;;;;;;;;;4956023;28;20766;-86
2021/12/06 00:28:30;;;;;;;60.15;19.67;;;;;;;;;;4929692;29;20560;-86
2021/12/06 00:30:57;;;;;;;55.42;18.05;;;;;;;;;;4945613;28;20111;-87
2021/12/06 00:33:25;;;;;;;58.80;20.20;;;;;;;;;;4948030;29;20127;-87
2021/12/06 00:35:56;;;;;;;56.78;17.02;;;;;;;;;;4945652;28;20130;-86
2021/12/06 00:38:24;;;;;;;53.03;17.17;;;;;;;;;;4944328;28;20052;-86
2021/12/06 00:40:51;;;;;;;49.45;16.52;;;;;;;;;;4944416;29;20468;-86
2021/12/06 00:43:27;;;;;;;50.53;15.90;;;;;;;;;;4944921;29;20099;-87
2021/12/06 00:45:55;;;;;;;56.17;15.77;;;;;;;;;;4951249;29;20114;-87
2021/12/06 00:48:22;;;;;;;47.42;15.13;;;;;;;;;;4950182;28;20127;-86
2021/12/06 00:50:49;;;;;;;52.75;16.50;;;;;;;;;;4948194;29;20051;-86
2021/12/06 00:53:16;;;;;;;46.95;15.70;;;;;;;;;;4955567;28;20134;-86
2021/12/06 00:55:43;;;;;;;45.10;15.20;;;;;;;;;;4960743;28;20202;-86
2021/12/06 00:58:11;;;;;;;51.13;15.25;;;;;;;;;;4950898;29;20134;-87
2021/12/06 01:00:40;;;;;;;44.45;13.70;;;;;;;;;;4942377;28;20515;-86
2021/12/06 01:03:12;;;;;;;39.53;13.90;;;;;;;;;;4950695;28;20059;-86
2021/12/06 01:05:40;;;;;;;49.60;14.02;;;;;;;;;;4948406;29;20062;-86
2021/12/06 01:08:07;;;;;;;44.20;13.52;;;;;;;;;;4930718;29;20123;-86
2021/12/06 01:10:35;;;;;;;42.90;14.02;;;;;;;;;;4952519;28;20492;-86
2021/12/06 01:13:11;;;;;;;52.83;14.05;;;;;;;;;;4936623;29;20135;-85
2021/12/06 01:15:39;;;;;;;44.28;14.32;;;;;;;;;;4922385;29;20130;-86
2021/12/06 01:18:08;;;;;;;44.80;14.48;;;;;;;;;;4932795;29;20114;-87
2021/12/06 01:20:42;;;;;;;48.80;14.65;;;;;;;;;;4948972;29;20206;-86
2021/12/06 01:23:16;;;;;;;41.92;14.32;;;;;;;;;;4942561;29;20119;-87
2021/12/06 01:26:11;;;;;;;52.00;15.30;;;;;;;;;;4962697;28;20061;-87
2021/12/06 01:31:52;;;;;;;53.90;14.70;;;;;;;;;;4910037;29;20135;-86
2021/12/06 01:40:00;;;;;;;45.10;15.43;;;;;;;;;;4928520;29;20083;-87
2021/12/06 01:42:27;;;;;;;39.60;13.15;;;;;;;;;;4952222;28;20051;-86
2021/12/06 01:44:56;;;;;;;42.50;14.15;;;;;;;;;;4942635;28;20155;-86
2021/12/06 01:47:30;;;;;;;47.08;15.18;;;;;;;;;;4925129;29;20452;-87
2021/12/06 01:50:00;;;;;;;44.47;13.25;;;;;;;;;;4927433;29;20056;-87
2021/12/06 01:52:32;;;;;;;41.92;13.52;;;;;;;;;;4938716;29;20084;-87
2021/12/06 01:55:03;;;;;;;36.38;12.00;;;;;;;;;;4934049;29;20052;-87
2021/12/06 01:57:31;;;;;;;44.70;13.48;;;;;;;;;;4931496;29;20369;-87
2021/12/06 01:59:58;;;;;;;45.75;12.98;;;;;;;;;;4941355;29;20083;-86
2021/12/06 02:02:26;;;;;;;34.25;11.65;;;;;;;;;;4941624;28;20084;-87
2021/12/06 02:04:54;;;;;;;34.72;12.55;;;;;;;;;;4930557;29;20075;-86
2021/12/06 02:07:23;;;;;;;40.00;12.95;;;;;;;;;;4950177;29;20075;-87
2021/12/06 02:09:51;;;;;;;49.63;12.73;;;;;;;;;;4934415;29;20563;-86
2021/12/06 02:12:19;;;;;;;38.58;12.05;;;;;;;;;;4931358;29;20138;-87
2021/12/06 02:15:09;;;;;;;51.47;11.40;;;;;;;;;;4916860;29;20143;-87
2021/12/06 02:17:42;;;;;;;35.47;11.50;;;;;;;;;;4934313;29;20139;-87
2021/12/06 02:20:14;;;;;;;29.55;10.20;;;;;;;;;;4946180;28;20563;-87
2021/12/06 02:22:42;;;;;;;30.38;9.98;;;;;;;;;;4918644;29;20705;-87
2021/12/06 02:25:46;;;;;;;36.63;10.05;;;;;;;;;;4968802;28;20093;-87
2021/12/06 02:28:13;;;;;;;31.23;9.73;;;;;;;;;;4937484;28;20078;-87
2021/12/06 02:30:41;;;;;;;29.67;9.07;;;;;;;;;;4958459;28;20524;-87
2021/12/06 02:33:08;;;;;;;32.65;8.75;;;;;;;;;;4949296;28;20504;-87
2021/12/06 02:35:35;;;;;;;21.98;7.75;;;;;;;;;;4936366;29;20429;-87
2021/12/06 02:38:07;;;;;;;21.55;7.28;;;;;;;;;;4949859;29;20103;-87
2021/12/06 02:40:37;;;;;;;28.20;7.22;;;;;;;;;;4959373;28;20111;-87
2021/12/06 02:43:10;;;;;;;19.48;6.80;;;;;;;;;;4933886;29;20082;-86
2021/12/06 02:45:38;;;;;;;26.52;7.22;;;;;;;;;;4935563;29;20055;-86
2021/12/06 02:48:06;;;;;;;20.95;6.82;;;;;;;;;;4934682;29;20083;-87
2021/12/06 02:50:35;;;;;;;19.70;7.03;;;;;;;;;;4939784;28;20056;-86
2021/12/06 02:53:02;;;;;;;15.27;6.25;;;;;;;;;;4941942;29;20044;-86
2021/12/06 02:55:34;;;;;;;20.20;6.05;;;;;;;;;;4955001;28;20079;-86
2021/12/06 02:58:32;;;;;;;18.17;6.53;;;;;;;;;;4935181;29;20458;-86
2021/12/06 03:01:01;;;;;;;14.52;5.50;;;;;;;;;;4950496;28;20058;-87
2021/12/06 03:03:29;;;;;;;17.27;7.03;;;;;;;;;;4949563;29;20055;-86
2021/12/06 03:05:56;;;;;;;14.35;5.97;;;;;;;;;;4949254;28;20071;-86
2021/12/06 03:08:34;;;;;;;16.83;5.82;;;;;;;;;;4950185;29;20083;-87
2021/12/06 03:11:01;;;;;;;22.85;6.45;;;;;;;;;;4953435;28;20064;-86
2021/12/06 03:13:28;;;;;;;21.13;7.22;;;;;;;;;;4935471;29;20075;-87
2021/12/06 03:15:56;;;;;;;17.13;5.97;;;;;;;;;;4930421;29;20544;-87
2021/12/06 03:18:23;;;;;;;18.45;6.10;;;;;;;;;;4949549;29;20059;-87
2021/12/06 03:20:50;;;;;;;22.75;7.22;;;;;;;;;;4943897;29;20044;-87
2021/12/06 03:23:17;;;;;;;19.83;6.82;;;;;;;;;;4920878;29;20135;-87
2021/12/06 03:25:44;;;;;;;20.50;6.80;;;;;;;;;;4935972;29;20059;-87
2021/12/06 03:28:12;;;;;;;21.20;6.90;;;;;;;;;;4936803;28;20062;-87
2021/12/06 03:30:39;;;;;;;17.88;6.97;;;;;;;;;;4941559;28;20080;-87
2021/12/06 03:33:06;;;;;;;18.25;7.07;;;;;;;;;;4926045;29;20052;-87
2021/12/06 03:35:33;;;;;;;19.33;7.00;;;;;;;;;;4949161;29;20130;-88
2021/12/06 03:38:01;;;;;;;27.05;9.50;;;;;;;;;;4934666;29;20055;-87
2021/12/06 03:40:28;;;;;;;24.27;10.30;;;;;;;;;;4956774;28;20044;-87
2021/12/06 03:42:55;;;;;;;26.58;9.52;;;;;;;;;;4950524;28;20091;-87
2021/12/06 03:45:22;;;;;;;24.27;9.60;;;;;;;;;;4948711;28;20086;-87
2021/12/06 03:47:49;;;;;;;22.25;8.25;;;;;;;;;;4949584;29;20059;-87
2021/12/06 03:50:20;;;;;;;22.23;8.63;;;;;;;;;;4950403;28;20799;-87
2021/12/06 03:52:47;;;;;;;17.27;7.43;;;;;;;;;;4943641;28;20048;-87
2021/12/06 03:55:14;;;;;;;20.02;8.30;;;;;;;;;;4960832;28;20054;-87
2021/12/06 03:57:41;;;;;;;19.95;7.53;;;;;;;;;;4931833;28;20139;-87
2021/12/06 04:00:09;;;;;;;21.17;7.43;;;;;;;;;;4942016;29;20056;-88
2021/12/06 04:02:37;;;;;;;16.55;6.25;;;;;;;;;;4943834;28;20457;-87
2021/12/06 04:05:04;;;;;;;18.45;5.93;;;;;;;;;;4948868;28;20059;-87
2021/12/06 04:07:32;;;;;;;23.50;7.25;;;;;;;;;;4926684;29;20082;-87
2021/12/06 04:09:59;;;;;;;19.98;7.43;;;;;;;;;;4947970;28;20472;-88
2021/12/06 04:12:26;;;;;;;16.23;6.57;;;;;;;;;;4948618;29;20127;-87
2021/12/06 04:14:53;;;;;;;23.33;7.57;;;;;;;;;;4933653;29;20130;-87
2021/12/06 04:17:34;;;;;;;19.42;6.85;;;;;;;;;;4948508;29;20469;-87
2021/12/06 04:20:01;;;;;;;19.35;7.00;;;;;;;;;;4940242;29;20651;-87
2021/12/06 04:22:28;;;;;;;23.23;7.65;;;;;;;;;;4959386;28;20078;-87
2021/12/06 04:24:58;;;;;;;18.15;6.65;;;;;;;;;;4937156;29;20138;-88
2021/12/06 04:27:25;;;;;;;15.50;6.80;;;;;;;;;;4948251;28;20518;-88
2021/12/06 04:30:06;;;;;;;22.85;6.57;;;;;;;;;;4933253;29;20158;-87
2021/12/06 04:32:33;;;;;;;17.90;6.40;;;;;;;;;;4948794;29;20079;-88
2021/12/06 04:35:06;;;;;;;16.55;5.50;;;;;;;;;;4935117;29;20075;-88
2021/12/06 04:37:39;;;;;;;15.23;5.63;;;;;;;;;;4944357;28;20072;-87
2021/12/06 04:40:07;;;;;;;10.85;4.35;;;;;;;;;;4953785;28;20517;-88
2021/12/06 04:42:34;;;;;;;17.42;4.60;;;;;;;;;;4945236;28;20142;-88
2021/12/06 04:45:01;;;;;;;10.80;3.92;;;;;;;;;;4929939;29;20083;-88
2021/12/06 04:47:28;;;;;;;12.60;4.30;;;;;;;;;;4930951;29;20123;-87
2021/12/06 04:49:55;;;;;;;10.90;4.72;;;;;;;;;;4945283;29;20176;-88
2021/12/06 04:52:23;;;;;;;11.68;4.72;;;;;;;;;;4934085;29;20051;-88
2021/12/06 04:54:56;;;;;;;15.40;5.28;;;;;;;;;;4937043;29;20102;-88
2021/12/06 04:57:25;;;;;;;11.23;4.93;;;;;;;;;;4936591;29;20533;-87
2021/12/06 04:59:54;;;;;;;10.75;4.28;;;;;;;;;;4951354;29;20118;-88
2021/12/06 05:02:26;;;;;;;10.00;4.03;;;2.50;99.90;;;;;;4947328;29;20083;-76
2021/12/06 05:05:11;;;;;;;11.85;4.50;;;2.40;99.90;;;;;;4930343;29;20067;-76
2021/12/06 05:07:55;;;;;;;12.73;4.43;;;2.40;99.90;;;;;;4926979;29;20083;-76
2021/12/06 05:10:22;;;;;;;16.17;4.47;;;2.40;99.90;;;;;;4945721;29;20335;-77
2021/12/06 05:12:50;;;;;;;8.43;3.90;;;2.40;99.90;;;;;;4930014;29;20170;-76
2021/12/06 05:15:18;;;;;;;16.05;5.05;;;2.40;99.90;;;;;;4927382;29;21284;-76
2021/12/06 05:17:44;;;;;;;8.93;3.65;;;2.40;99.90;;;;;;4931685;29;20047;-76
2021/12/06 05:20:13;;;;;;;10.20;4.57;;;2.40;99.90;;;;;;4927880;29;20713;-76
2021/12/06 05:22:41;;;;;;;13.35;3.90;;;2.40;99.90;;;;;;4930598;29;20089;-76
2021/12/06 05:25:09;;;;;;;13.68;4.65;;;2.40;99.90;;;;;;4927236;29;20056;-76
2021/12/06 05:27:36;;;;;;;8.57;4.00;;;2.40;99.90;;;;;;4927982;29;20155;-76
2021/12/06 05:30:06;;;;;;;14.32;4.35;;;2.40;99.90;;;;;;4928695;29;20131;-76
2021/12/06 05:33:02;;;;;;;16.98;4.97;;;2.40;99.90;;;;;;4927606;29;20505;-76
2021/12/06 05:35:29;;;;;;;11.23;4.68;;;2.40;99.90;;;;;;4914360;29;20067;-76
2021/12/06 05:37:59;;;;;;;13.32;4.93;;;2.40;99.90;;;;;;4929277;29;20055;-76
2021/12/06 05:40:33;;;;;;;15.18;5.22;;;2.40;99.90;;;;;;4928767;29;20056;-76
2021/12/06 05:43:02;;;;;;;10.90;4.57;;;2.40;99.90;;;;;;4929116;29;20494;-76
2021/12/06 05:45:31;;;;;;;14.40;4.43;;;2.40;99.90;;;;;;4929943;29;20075;-76
2021/12/06 05:47:58;;;;;;;13.93;4.55;;;2.40;99.90;;;;;;4930248;29;20080;-76
2021/12/06 05:50:25;;;;;;;9.30;4.38;;;2.30;99.90;;;;;;4928888;29;20087;-76
2021/12/06 05:52:54;;;;;;;10.93;4.35;;;2.30;99.90;;;;;;4930150;29;20140;-77
2021/12/06 05:55:24;;;;;;;14.38;4.60;;;2.30;99.90;;;;;;4926471;29;20538;-77
2021/12/06 05:57:51;;;;;;;14.00;4.45;;;2.30;99.90;;;;;;4929354;29;20130;-77
2021/12/06 06:00:21;;;;;;;14.05;3.90;;;2.30;99.90;;;;;;4927976;29;20595;-77
2021/12/06 06:02:48;;;;;;;14.27;3.20;;;2.30;99.90;;;;;;4929421;29;20468;-77
2021/12/06 06:05:18;;;;;;;8.90;3.97;;;2.30;99.90;;;;;;4941412;28;20591;-78
2021/12/06 06:11:27;;;;;;;10.43;4.45;;;2.30;99.90;;;;;;4927795;29;20115;-77
2021/12/06 06:17:03;;;;;;;13.45;4.25;;;2.30;99.90;;;;;;4987593;28;20046;-76
2021/12/06 06:19:30;;;;;;;18.27;5.07;;;2.20;99.90;;;;;;4976795;28;20148;-77
2021/12/06 06:21:56;;;;;;;13.77;5.28;;;2.30;99.90;;;;;;4990270;28;20901;-78
2021/12/06 06:24:23;;;;;;;11.18;4.85;;;2.30;99.90;;;;;;4990810;28;20466;-78
2021/12/06 06:26:53;;;;;;;14.88;4.93;;;2.20;99.90;;;;;;4973318;28;20142;-77
2021/12/06 06:29:20;;;;;;;17.42;5.28;;;2.30;99.90;;;;;;4990220;28;20050;-77
2021/12/06 06:31:46;;;;;;;14.05;4.55;;;2.30;99.90;;;;;;4986360;28;20161;-77
2021/12/06 06:34:13;;;;;;;23.48;5.25;;;2.20;99.90;;;;;;4988092;28;20074;-77
2021/12/06 06:36:40;;;;;;;12.38;4.05;;;2.20;99.90;;;;;;4988461;28;20042;-76
2021/12/06 06:39:09;;;;;;;19.08;4.85;;;2.10;99.90;;;;;;4984675;28;20140;-77
2021/12/06 06:41:36;;;;;;;15.73;4.68;;;2.10;99.90;;;;;;4991267;28;20133;-77
2021/12/06 06:44:09;;;;;;;10.85;4.32;;;2.10;99.90;;;;;;4993433;28;20097;-77
2021/12/06 06:46:35;;;;;;;13.20;4.32;;;2.10;99.90;;;;;;4994504;28;20157;-76
2021/12/06 06:49:03;;;;;;;18.38;5.40;;;2.10;99.90;;;;;;4993059;28;20054;-76
2021/12/06 06:51:30;;;;;;;16.75;4.60;;;2.10;99.90;;;;;;4992997;28;20085;-78
2021/12/06 06:53:57;;;;;;;11.82;4.57;;;2.10;99.90;;;;;;4990762;28;20049;-76
2021/12/06 06:56:24;;;;;;;18.27;5.35;;;2.10;99.90;;;;;;4995601;28;20065;-75
2021/12/06 06:58:53;;;;;;;18.13;4.90;;;2.10;99.90;;;;;;5002216;28;20141;-78
2021/12/06 07:01:20;;;;;;;15.40;5.28;;;2.10;99.90;;;;;;4976004;28;20141;-78
2021/12/06 07:03:53;;;;;;;16.20;5.22;;;2.10;99.90;;;;;;4991748;28;20054;-77
2021/12/06 07:06:27;;;;;;;14.10;5.13;;;2.10;99.90;;;;;;4992157;28;20133;-78
2021/12/06 07:08:56;;;;;;;21.43;6.40;;;2.00;99.90;;;;;;4976686;28;20050;-78
2021/12/06 07:11:26;;;;;;;21.05;6.78;;;2.20;99.90;;;;;;4994077;28;20311;-76
2021/12/06 07:13:54;;;;;;;17.88;6.32;;;2.10;99.90;;;;;;4987970;28;20174;-78
2021/12/06 07:16:21;;;;;;;22.88;7.38;;;2.10;99.90;;;;;;4990522;28;20133;-77
2021/12/06 07:18:48;;;;;;;22.60;7.38;;;2.10;99.90;;;;;;4977133;28;20050;-77
2021/12/06 07:21:15;;;;;;;18.15;6.80;;;2.10;99.90;;;;;;4984454;28;20137;-77
2021/12/06 07:23:42;;;;;;;19.08;6.80;;;2.10;99.90;;;;;;4985355;28;20077;-78
2021/12/06 07:26:12;;;;;;;18.95;6.28;;;2.10;99.90;;;;;;4977797;28;20274;-77
2021/12/06 07:28:41;;;;;;;18.88;7.10;;;2.10;99.90;;;;;;4989266;28;20043;-77
2021/12/06 07:31:12;;;;;;;21.10;5.90;;;2.10;99.90;;;;;;4985260;28;20077;-76
2021/12/06 07:33:40;;;;;;;13.15;5.47;;;2.20;99.90;;;;;;4969461;28;20051;-76
2021/12/06 07:36:08;;;;;;;13.25;5.57;;;2.10;99.90;;;;;;4966541;28;20050;-76
2021/12/06 07:38:37;;;;;;;18.10;5.70;;;2.20;99.90;;;;;;4974305;28;20050;-77
2021/12/06 07:41:07;;;;;;;15.13;5.07;;;2.20;99.90;;;;;;4985989;28;20511;-76
2021/12/06 07:43:34;;;;;;;19.20;6.40;;;2.20;99.90;;;;;;4983894;28;20125;-76
2021/12/06 07:46:03;;;;;;;15.93;5.32;;;2.20;99.90;;;;;;4975657;28;20751;-77
2021/12/06 07:48:30;;;;;;;17.15;5.15;;;2.20;99.90;;;;;;4979092;28;20042;-76
2021/12/06 07:50:59;;;;;;;13.20;4.60;;;2.20;99.90;;;;;;4983581;28;20050;-76
2021/12/06 07:53:29;;;;;;;14.00;5.13;;;2.10;99.90;;;;;;4983453;28;20134;-77
2021/12/06 07:55:57;;;;;;;11.45;4.35;;;2.20;99.90;;;;;;4976006;28;20551;-76
2021/12/06 07:58:25;;;;;;;12.68;5.10;;;2.20;99.90;;;;;;4984031;28;20145;-76
2021/12/06 08:00:52;;;;;;;11.45;4.20;;;2.20;99.90;;;;;;4967045;28;20085;-77
2021/12/06 08:03:22;;;;;;;18.63;4.88;;;2.20;99.90;;;;;;4984176;28;20129;-77
2021/12/06 08:05:52;;;;;;;11.90;4.25;;;2.20;99.90;;;;;;4969131;28;20052;-77
2021/12/06 08:08:25;;;;;;;11.50;4.45;;;2.20;99.90;;;;;;4984248;28;20112;-76
2021/12/06 08:10:55;;;;;;;18.67;4.95;;;2.30;99.90;;;;;;4980189;28;20144;-77
2021/12/06 08:13:25;;;;;;;13.73;4.35;;;2.20;99.90;;;;;;4985064;28;20073;-77
2021/12/06 08:15:56;;;;;;;12.38;4.88;;;2.30;99.90;;;;;;4979200;28;20498;-77
2021/12/06 08:18:23;;;;;;;21.35;6.38;;;2.40;99.90;;;;;;4981296;28;20039;-77
2021/12/06 08:20:51;;;;;;;17.88;4.90;;;2.40;99.90;;;;;;4979565;28;20133;-76
2021/12/06 08:23:18;;;;;;;16.75;5.38;;;2.40;99.90;;;;;;4985706;28;20050;-77
2021/12/06 08:25:48;;;;;;;9.65;4.93;;;2.50;99.90;;;;;;4970696;28;20133;-77
2021/12/06 08:28:16;;;;;;;14.18;5.78;;;2.60;99.90;;;;;;4973199;28;20103;-77
2021/12/06 08:30:44;;;;;;;16.75;6.18;;;2.60;99.90;;;;;;4972141;28;20133;-77
2021/12/06 08:33:12;;;;;;;12.75;5.32;;;2.70;99.90;;;;;;4989368;28;20058;-77
2021/12/06 08:35:43;;;;;;;11.80;4.82;;;2.70;99.90;;;;;;4972718;28;20070;-76
2021/12/06 08:38:10;;;;;;;16.73;5.53;;;2.70;99.90;;;;;;4989689;28;20077;-77
2021/12/06 08:40:39;;;;;;;14.98;5.50;;;2.80;99.90;;;;;;4989355;28;20129;-77
2021/12/06 08:43:06;;;;;;;13.65;5.10;;;2.90;99.90;;;;;;4981489;28;20074;-77
2021/12/06 08:45:34;;;;;;;15.50;5.70;;;2.90;99.90;;;;;;4989524;28;20089;-77
2021/12/06 08:48:01;;;;;;;22.77;7.85;;;2.90;99.90;;;;;;4988633;28;20046;-77
2021/12/06 08:50:30;;;;;;;19.52;7.05;;;3.00;99.90;;;;;;4980177;28;20133;-77
2021/12/06 08:52:56;;;;;;;13.77;5.97;;;3.00;99.90;;;;;;4988975;28;20054;-77
2021/12/06 08:55:24;;;;;;;17.98;6.88;;;3.10;99.90;;;;;;4987826;28;20141;-77
2021/12/06 08:57:51;;;;;;;14.90;6.88;;;3.10;99.90;;;;;;4981503;28;20077;-77
2021/12/06 09:00:23;;;;;;;14.63;6.03;;;3.10;99.90;;;;;;4988529;28;20081;-77
2021/12/06 09:02:50;;;;;;;13.52;5.63;;;3.10;99.90;;;;;;4988760;28;20050;-77
2021/12/06 09:05:24;;;;;;;23.85;5.30;;;3.20;99.90;;;;;;4974152;28;20094;-76
2021/12/06 09:07:51;;;;;;;15.23;6.13;;;3.20;99.90;;;;;;4988080;28;20574;-77
2021/12/06 09:10:18;;;;;;;13.35;5.43;;;3.20;99.90;;;;;;4989082;28;20137;-77
2021/12/06 09:12:45;;;;;;;14.73;5.30;;;3.30;99.90;;;;;;4989875;28;20124;-78
2021/12/06 09:15:16;;;;;;;18.00;4.90;;;3.30;99.90;;;;;;4988426;28;20053;-77
2021/12/06 09:17:48;;;;;;;13.80;4.55;;;3.30;99.90;;;;;;4988535;28;20042;-77
2021/12/06 09:20:16;;;;;;;13.27;4.68;;;3.40;99.90;;;;;;4983432;28;20140;-77
2021/12/06 09:22:45;;;;;;;13.77;5.32;;;3.40;99.90;;;;;;4987534;28;20490;-77
2021/12/06 09:25:13;;;;;;;11.60;4.50;;;3.40;99.90;;;;;;4987105;28;20054;-77
2021/12/06 09:27:39;;;;;;;13.57;4.93;;;3.40;99.90;;;;;;4976259;28;20821;-77
2021/12/06 09:30:10;;;;;;;12.57;3.88;;;3.40;99.90;;;;;;4987902;28;20890;-77
2021/12/06 09:32:38;;;;;;;14.38;4.82;;;3.50;99.90;;;;;;4979638;28;20050;-77
2021/12/06 09:35:06;;;;;;;11.50;4.63;;;3.40;99.90;;;;;;4979479;28;20129;-76
2021/12/06 09:37:36;;;;;;;10.40;4.55;;;3.40;99.90;;;;;;4970182;28;20054;-77
2021/12/06 09:40:05;;;;;;;15.00;4.68;;;3.40;99.90;;;;;;4985665;28;20112;-77
2021/12/06 09:42:35;;;;;;;14.93;4.30;;;3.40;99.90;;;;;;4980401;28;20153;-77
2021/12/06 09:45:06;;;;;;;16.33;5.13;;;3.40;99.90;;;;;;4977131;28;20052;-77
2021/12/06 09:47:34;;;;;;;19.50;6.43;;;3.40;99.90;;;;;;4981938;28;20487;-76
2021/12/06 09:50:00;;;;;;;13.18;4.53;;;3.50;99.90;;;;;;4974777;28;20486;-76
2021/12/06 09:52:27;;;;;;;20.98;5.35;;;3.60;99.90;;;;;;4970642;28;20050;-76
2021/12/06 09:54:55;;;;;;;12.30;4.75;;;3.70;99.90;;;;;;4984521;28;20564;-77
2021/12/06 09:57:23;;;;;;;10.60;4.47;;;3.70;99.90;;;;;;4988309;28;20125;-76
2021/12/06 09:59:50;;;;;;;15.43;4.35;;;3.80;99.90;;;;;;4987087;28;20134;-76
2021/12/06 10:02:20;;;;;;;12.07;4.68;;;3.80;99.90;;;;;;4976299;28;20088;-76
2021/12/06 10:04:53;;;;;;;14.25;5.28;;;3.80;99.90;;;;;;4985301;28;20511;-76
2021/12/06 10:07:22;;;;;;;12.80;6.10;;;3.90;99.90;;;;;;4989021;28;20391;-76
2021/12/06 10:09:51;;;;;;;15.93;6.20;;;4.10;99.90;;;;;;4970883;28;20137;-77
2021/12/06 10:12:19;;;;;;;21.30;6.65;;;4.10;99.90;;;;;;4972261;28;20054;-77
2021/12/06 10:14:46;;;;;;;17.02;5.63;;;4.10;99.90;;;;;;4978380;28;20133;-77
2021/12/06 10:17:19;;;;;;;14.15;5.85;;;4.10;99.90;;;;;;4987332;28;20054;-77
2021/12/06 10:19:48;;;;;;;14.93;5.57;;;4.10;99.90;;;;;;4979400;28;20085;-76
2021/12/06 10:22:15;;;;;;;16.60;5.57;;;4.00;99.90;;;;;;4970692;28;20140;-77
2021/12/06 10:24:50;;;;;;;15.55;5.82;;;4.00;99.90;;;;;;4975849;28;20439;-76
2021/12/06 10:27:17;;;;;;;;;;;3.90;99.90;;;;;;4988285;28;20050;-76
2021/12/06 10:29:48;;;;;;;12.23;5.72;;;3.80;99.90;;;;;;4984788;28;19928;-76
2021/12/06 10:32:19;;;;;;;21.45;6.68;;;3.70;99.90;;;;;;4987305;28;20145;-76
2021/12/06 10:34:56;;;;;;;21.00;8.55;;;3.70;99.90;;;;;;4986927;28;20086;-76
2021/12/06 10:37:53;;;;;;;21.92;8.27;;;3.50;99.90;;;;;;4985105;28;20555;-76
2021/12/06 10:40:26;;;;;;;20.20;7.00;;;3.40;99.90;;;;;;4982573;28;20539;-76
2021/12/06 10:42:54;;;;;;;25.23;9.80;;;3.40;99.90;;;;;;4987623;28;20140;-76
2021/12/06 10:45:28;;;;;;;38.72;15.45;;;3.40;99.90;;;;;;4985805;28;20141;-76
2021/12/06 10:48:33;;;;;;;22.02;7.63;;;3.30;99.90;;;;;;4977843;28;20061;-76
2021/12/06 10:51:07;;;;;;;70.30;24.73;;;3.30;99.90;;;;;;4982812;28;20141;-76
2021/12/06 10:53:39;;;;;;;23.08;9.57;;;3.20;99.90;;;;;;4986863;28;20141;-76
2021/12/06 10:56:17;;;;;;;31.80;12.55;;;3.20;99.90;;;;;;4975809;28;20137;-76
2021/12/06 10:58:44;;;;;;;15.75;4.70;;;3.30;99.90;;;;;;4986762;28;20128;-76
2021/12/06 11:01:14;;;;;;;16.48;3.60;;;3.50;99.90;;;;;;4979410;28;20056;-76
2021/12/06 11:03:47;;;;;;;15.70;4.85;;;3.70;99.90;;;;;;4986911;28;20053;-76
2021/12/06 11:06:25;;;;;;;23.67;8.32;;;3.90;99.90;;;;;;4986659;28;20887;-76
2021/12/06 11:08:56;;;;;;;13.85;7.00;;;3.90;99.90;;;;;;4986044;28;20168;-75
2021/12/06 11:11:29;;;;;;;21.42;9.48;;;4.40;99.90;;;;;;4986604;28;20449;-76
2021/12/06 11:14:02;;;;;;;9.77;4.80;;;5.60;99.90;;;;;;4979186;28;20086;-76
2021/12/06 11:16:52;;;;;;;4.75;2.40;;;5.80;99.90;;;;;;4987338;28;20133;-76
2021/12/06 11:19:23;;;;;;;9.55;3.67;;;;;;;;;;4968836;28;20085;-76
2021/12/06 11:21:53;;;;;;;11.75;5.55;;;;;;;;;;4985272;28;20898;-76
2021/12/06 11:24:27;;;;;;;14.18;6.07;;;;;;;;;;4985584;28;20860;-76
2021/12/06 11:26:57;;;;;;;16.63;6.28;;;;;;;;;;4974577;28;20058;-76
2021/12/06 11:29:28;;;;;;;9.55;3.90;;;;;;;;;;4989786;28;20148;-76
2021/12/06 11:32:05;;;;;;;5.65;2.83;;;7.80;99.90;;;;;;4972038;28;20054;-76
2021/12/06 11:34:40;;;;;;;3.88;1.98;;;9.00;99.90;;;;;;4964512;28;20121;-76
2021/12/06 11:37:29;;;;;;;7.78;1.83;;;10.20;99.90;;;;;;4986948;28;20125;-76
2021/12/06 11:40:03;;;;;;;7.65;2.40;;;10.70;99.90;;;;;;4965607;28;20086;-76
2021/12/06 11:42:30;;;;;;;3.65;2.08;;;10.40;99.90;;;;;;4987482;28;20056;-76
2021/12/06 11:44:56;;;;;;;10.80;2.47;;;10.40;99.90;;;;;;4970811;28;20574;-76
2021/12/06 11:47:23;;;;;;;9.38;2.35;;;9.50;99.90;;;;;;4986268;28;20092;-76
2021/12/06 11:49:54;;;;;;;8.48;2.22;;;8.80;99.90;;;;;;4985970;28;20121;-76
2021/12/06 11:52:27;;;;;;;3.42;1.88;;;8.20;99.90;;;;;;4985027;28;20137;-76
2021/12/06 11:55:12;;;;;;;8.52;2.85;;;7.70;99.90;;;;;;4979554;28;20161;-76
2021/12/06 11:57:42;;;;;;;6.13;2.30;;;7.70;99.90;;;;;;4979389;28;20055;-76
2021/12/06 12:00:19;;;;;;;4.88;2.13;;;7.60;99.90;;;;;;4984669;28;20133;-76
2021/12/06 12:02:55;;;;;;;6.72;2.40;;;7.20;99.90;;;;;;4969688;28;20133;-76
2021/12/06 12:05:32;;;;;;;8.18;2.45;;;6.80;99.90;;;;;;4984072;28;20058;-76
2021/12/06 12:08:08;;;;;;;11.70;3.35;;;6.50;99.90;;;;;;4986182;28;20084;-75
2021/12/06 12:10:48;;;;;;;9.48;3.42;;;6.10;99.90;;;;;;4976913;28;20057;-75
2021/12/06 12:13:33;;;;;;;17.95;3.20;;;5.90;99.90;;;;;;4983102;28;20081;-75
2021/12/06 12:16:05;;;;;;;3.57;1.80;;;5.90;99.90;;;;;;4979824;28;20050;-75
2021/12/06 12:18:36;;;;;;;2.75;1.85;;;5.80;99.90;;;;;;4983577;28;20368;-75
2021/12/06 12:21:04;;;;;;;3.80;1.90;;;5.70;99.90;;;;;;4975066;28;20133;-76
2021/12/06 12:23:32;;;;;;;4.90;2.03;;;5.60;99.90;;;;;;4984214;28;20578;-75
2021/12/06 12:26:06;;;;;;;3.47;2.03;;;5.50;99.90;;;;;;4985392;28;20439;-75
2021/12/06 12:29:01;;;;;;;9.88;2.65;;;5.40;99.90;;;;;;4988838;28;20050;-75
2021/12/06 12:31:32;;;;;;;9.13;2.45;;;5.30;99.90;;;;;;4969565;28;20065;-75
2021/12/06 12:33:59;;;;;;;11.23;2.63;;;5.10;99.90;;;;;;4973498;28;20054;-75
2021/12/06 12:36:26;;;;;;;4.03;2.15;;;5.20;99.90;;;;;;4984958;28;20053;-75
2021/12/06 12:38:56;;;;;;;7.13;2.28;;;5.30;99.90;;;;;;4985372;28;20134;-75
2021/12/06 12:41:28;;;;;;;6.03;2.13;;;5.20;99.90;;;;;;4983098;28;20047;-75
2021/12/06 12:44:03;;;;;;;4.25;1.98;;;5.10;99.90;;;;;;4984280;28;20050;-75
2021/12/06 12:46:40;;;;;;;27.15;2.95;;;5.00;99.90;;;;;;4985689;28;20086;-75
2021/12/06 12:49:17;;;;;;;8.55;2.50;;;5.10;99.90;;;;;;4985148;28;20124;-75
2021/12/06 12:51:48;;;;;;;8.35;2.67;;;5.20;99.90;;;;;;4981105;28;20081;-75
2021/12/06 12:54:24;;;;;;;6.05;2.58;;;5.20;99.90;;;;;;4980002;28;20133;-75
2021/12/06 12:57:06;;;;;;;7.30;2.90;;;5.00;99.90;;;;;;4986016;28;20058;-75
2021/12/06 12:59:56;;;;;;;20.63;7.05;;;4.90;99.90;;;;;;4985254;28;20125;-75
2021/12/06 13:02:34;;;;;;;20.52;6.25;;;4.60;99.90;;;;;;4973955;28;20124;-75
2021/12/06 13:05:07;;;;;;;8.75;3.95;;;4.40;99.90;;;;;;4984066;28;20057;-75
2021/12/06 13:07:55;;;;;;;7.03;3.50;;;4.30;99.90;;;;;;4985528;28;20161;-75
2021/12/06 13:10:38;;;;;;;8.15;2.85;;;4.30;99.90;;;;;;4985321;28;20086;-75
2021/12/06 13:13:06;;;;;;;9.68;2.88;;;4.20;99.90;;;;;;4984417;28;20161;-75
2021/12/06 13:16:04;;;;;;;5.00;2.83;;;4.10;99.90;;;;;;4988004;28;20046;-75
2021/12/06 13:18:36;;;;;;;5.60;2.80;;;3.90;99.90;;;;;;4989677;28;20054;-75
2021/12/06 13:21:28;;;;;;;10.88;2.90;;;3.80;99.90;;;;;;4987961;28;20432;-75
2021/12/06 13:24:13;;;;;;;7.90;4.10;;;3.70;99.90;;;;;;4987163;28;20050;-75
2021/12/06 13:26:45;;;;;;;13.50;6.63;;;3.60;99.90;;;;;;4988790;28;20081;-77
2021/12/06 13:29:19;;;;;;;19.42;7.72;;;3.50;99.90;;;;;;4967340;28;20153;-76
2021/12/06 13:31:46;;;;;;;21.48;8.95;;;3.50;99.90;;;;;;4982174;28;20633;-75
2021/12/06 13:34:41;;;;;;;17.27;7.70;;;3.50;99.90;;;;;;4968201;28;20056;-75
2021/12/06 13:37:11;;;;;;;11.05;6.57;;;3.50;99.90;;;;;;4989113;28;20078;-74
2021/12/06 13:39:45;;;;;;;12.20;5.05;;;3.40;99.90;;;;;;4974904;28;20038;-74
2021/12/06 13:42:14;;;;;;;11.20;4.70;;;3.30;99.90;;;;;;4985052;28;20133;-72
2021/12/06 13:44:50;;;;;;;10.05;4.40;;;3.30;99.90;;;;;;4986646;28;20132;-74
2021/12/06 13:47:28;;;;;;;13.23;5.07;;;3.30;99.90;;;;;;4990097;28;20081;-72
2021/12/06 13:50:17;;;;;;;13.60;4.93;;;3.20;99.90;;;;;;4993045;28;20132;-75
2021/12/06 13:52:46;;;;;;;11.85;4.55;;;3.20;99.90;;;;;;4996208;28;20133;-74
2021/12/06 13:55:26;;;;;;;13.25;4.85;;;3.10;99.90;;;;;;4995178;28;20558;-74
2021/12/06 13:57:59;;;;;;;10.57;4.65;;;3.00;99.90;;;;;;4993781;28;20133;-73